Aviation Digital Data Service (ADDS)

Output produced by METARs form (1038 UTC 19 February 2019)
found at http://www.aviationweather.gov/metar/data/
 
METAR text: WAAA 191000Z 28006KT 9999 FEW019 29/24 Q1011 NOSIG
Conditions at: WAAA (HASANUDDIN/UJUNG, ID) observed 1000 UTC 19 February 2019
Temperature: 29.0°C (84°F)
Dewpoint: 24.0°C (75°F) [RH = 74%]
Pressure (altimeter): 29.85 inches Hg (1011.0 mb)
Winds: from the W (280 degrees) at 7 MPH (6 knots; 3.1 m/s)
Visibility: 6 or more miles (10+ km)
Ceiling: at least 12,000 feet AGL
Clouds: few clouds at 1900 feet AGL
Weather: no significant weather observed at this time

METAR text: WAAA 190930Z 29005KT 9999 FEW019 30/25 Q1011 NOSIG
Conditions at: WAAA (HASANUDDIN/UJUNG, ID) observed 0930 UTC 19 February 2019
Temperature: 30.0°C (86°F)
Dewpoint: 25.0°C (77°F) [RH = 75%]
Pressure (altimeter): 29.85 inches Hg (1011.0 mb)
Winds: from the WNW (290 degrees) at 6 MPH (5 knots; 2.6 m/s)
Visibility: 6 or more miles (10+ km)
Ceiling: at least 12,000 feet AGL
Clouds: few clouds at 1900 feet AGL
Weather: no significant weather observed at this time

METAR text: WAAA 190900Z 29008KT 9999 FEW019 30/25 Q1011 NOSIG
Conditions at: WAAA (HASANUDDIN/UJUNG, ID) observed 0900 UTC 19 February 2019
Temperature: 30.0°C (86°F)
Dewpoint: 25.0°C (77°F) [RH = 75%]
Pressure (altimeter): 29.85 inches Hg (1011.0 mb)
Winds: from the WNW (290 degrees) at 9 MPH (8 knots; 4.1 m/s)
Visibility: 6 or more miles (10+ km)
Ceiling: at least 12,000 feet AGL
Clouds: few clouds at 1900 feet AGL
Weather: no significant weather observed at this time

METAR text: WAAA 190830Z 30008KT 270V350 9999 FEW019 31/23 Q1011 NOSIG
Conditions at: WAAA (HASANUDDIN/UJUNG, ID) observed 0830 UTC 19 February 2019
Temperature: 31.0°C (88°F)
Dewpoint: 23.0°C (73°F) [RH = 63%]
Pressure (altimeter): 29.85 inches Hg (1011.0 mb)
Winds: from the WNW (300 degrees) at 9 MPH (8 knots; 4.1 m/s)
Visibility: 6 or more miles (10+ km)
Ceiling: at least 12,000 feet AGL
Clouds: few clouds at 1900 feet AGL
Weather: no significant weather observed at this time

METAR text: WAAA 190800Z 31008KT 280V350 9999 FEW019 31/23 Q1011 NOSIG
Conditions at: WAAA (HASANUDDIN/UJUNG, ID) observed 0800 UTC 19 February 2019
Temperature: 31.0°C (88°F)
Dewpoint: 23.0°C (73°F) [RH = 63%]
Pressure (altimeter): 29.85 inches Hg (1011.0 mb)
Winds: from the NW (310 degrees) at 9 MPH (8 knots; 4.1 m/s)
Visibility: 6 or more miles (10+ km)
Ceiling: at least 12,000 feet AGL
Clouds: few clouds at 1900 feet AGL
Weather: no significant weather observed at this time

METAR text: WAAA 190730Z 31009KT 280V340 9999 FEW019 32/23 Q1011 NOSIG
Conditions at: WAAA (HASANUDDIN/UJUNG, ID) observed 0730 UTC 19 February 2019
Temperature: 32.0°C (90°F)
Dewpoint: 23.0°C (73°F) [RH = 59%]
Pressure (altimeter): 29.85 inches Hg (1011.0 mb)
Winds: from the NW (310 degrees) at 10 MPH (9 knots; 4.6 m/s)
Visibility: 6 or more miles (10+ km)
Ceiling: at least 12,000 feet AGL
Clouds: few clouds at 1900 feet AGL
Weather: no significant weather observed at this time

METAR text: WAAA 190700Z 31009KT 280V360 9999 FEW019 33/24 Q1011 NOSIG
Conditions at: WAAA (HASANUDDIN/UJUNG, ID) observed 0700 UTC 19 February 2019
Temperature: 33.0°C (91°F)
Dewpoint: 24.0°C (75°F) [RH = 59%]
Pressure (altimeter): 29.85 inches Hg (1011.0 mb)
Winds: from the NW (310 degrees) at 10 MPH (9 knots; 4.6 m/s)
Visibility: 6 or more miles (10+ km)
Ceiling: at least 12,000 feet AGL
Clouds: few clouds at 1900 feet AGL
Weather: no significant weather observed at this time

METAR text: WAAA 190630Z 32007KT 290V350 9999 FEW019 32/24 Q1011 NOSIG
Conditions at: WAAA (HASANUDDIN/UJUNG, ID) observed 0630 UTC 19 February 2019
Temperature: 32.0°C (90°F)
Dewpoint: 24.0°C (75°F) [RH = 63%]
Pressure (altimeter): 29.85 inches Hg (1011.0 mb)
Winds: from the NW (320 degrees) at 8 MPH (7 knots; 3.6 m/s)
Visibility: 6 or more miles (10+ km)
Ceiling: at least 12,000 feet AGL
Clouds: few clouds at 1900 feet AGL
Weather: no significant weather observed at this time

METAR text: WAAA 190600Z 33006KT 300V060 9999 FEW019 32/24 Q1011 NOSIG
Conditions at: WAAA (HASANUDDIN/UJUNG, ID) observed 0600 UTC 19 February 2019
Temperature: 32.0°C (90°F)
Dewpoint: 24.0°C (75°F) [RH = 63%]
Pressure (altimeter): 29.85 inches Hg (1011.0 mb)
Winds: from the NNW (330 degrees) at 7 MPH (6 knots; 3.1 m/s)
Visibility: 6 or more miles (10+ km)
Ceiling: at least 12,000 feet AGL
Clouds: few clouds at 1900 feet AGL
Weather: no significant weather observed at this time

METAR text: WAAA 190530Z 33004KT 270V070 9999 FEW019 33/24 Q1012 NOSIG
Conditions at: WAAA (HASANUDDIN/UJUNG, ID) observed 0530 UTC 19 February 2019
Temperature: 33.0°C (91°F)
Dewpoint: 24.0°C (75°F) [RH = 59%]
Pressure (altimeter): 29.88 inches Hg (1012.0 mb)
Winds: from the NNW (330 degrees) at 5 MPH (4 knots; 2.1 m/s)
Visibility: 6 or more miles (10+ km)
Ceiling: at least 12,000 feet AGL
Clouds: few clouds at 1900 feet AGL
Weather: no significant weather observed at this time

METAR text: WAAA 190500Z 32006KT 270V360 9999 FEW019 32/24 Q1012 NOSIG
Conditions at: WAAA (HASANUDDIN/UJUNG, ID) observed 0500 UTC 19 February 2019
Temperature: 32.0°C (90°F)
Dewpoint: 24.0°C (75°F) [RH = 63%]
Pressure (altimeter): 29.88 inches Hg (1012.0 mb)
Winds: from the NW (320 degrees) at 7 MPH (6 knots; 3.1 m/s)
Visibility: 6 or more miles (10+ km)
Ceiling: at least 12,000 feet AGL
Clouds: few clouds at 1900 feet AGL
Weather: no significant weather observed at this time

METAR text: WAAA 190430Z 35008KT 320V020 9999 FEW019 32/23 Q1013 NOSIG
Conditions at: WAAA (HASANUDDIN/UJUNG, ID) observed 0430 UTC 19 February 2019
Temperature: 32.0°C (90°F)
Dewpoint: 23.0°C (73°F) [RH = 59%]
Pressure (altimeter): 29.91 inches Hg (1013.0 mb)
Winds: from the N (350 degrees) at 9 MPH (8 knots; 4.1 m/s)
Visibility: 6 or more miles (10+ km)
Ceiling: at least 12,000 feet AGL
Clouds: few clouds at 1900 feet AGL
Weather: no significant weather observed at this time

METAR text: WAAA 190400Z 36008KT 320V030 9999 FEW019 32/23 Q1013 NOSIG
Conditions at: WAAA (HASANUDDIN/UJUNG, ID) observed 0400 UTC 19 February 2019
Temperature: 32.0°C (90°F)
Dewpoint: 23.0°C (73°F) [RH = 59%]
Pressure (altimeter): 29.91 inches Hg (1013.0 mb)
Winds: from the N (360 degrees) at 9 MPH (8 knots; 4.1 m/s)
Visibility: 6 or more miles (10+ km)
Ceiling: at least 12,000 feet AGL
Clouds: few clouds at 1900 feet AGL
Weather: no significant weather observed at this time

METAR text: WAAA 190330Z 34008KT 310V020 9999 FEW019 32/23 Q1014 NOSIG
Conditions at: WAAA (HASANUDDIN/UJUNG, ID) observed 0330 UTC 19 February 2019
Temperature: 32.0°C (90°F)
Dewpoint: 23.0°C (73°F) [RH = 59%]
Pressure (altimeter): 29.94 inches Hg (1014.0 mb)
Winds: from the NNW (340 degrees) at 9 MPH (8 knots; 4.1 m/s)
Visibility: 6 or more miles (10+ km)
Ceiling: at least 12,000 feet AGL
Clouds: few clouds at 1900 feet AGL
Weather: no significant weather observed at this time

METAR text: WAAA 190300Z 34005KT 260V030 9999 FEW019 32/24 Q1014 NOSIG
Conditions at: WAAA (HASANUDDIN/UJUNG, ID) observed 0300 UTC 19 February 2019
Temperature: 32.0°C (90°F)
Dewpoint: 24.0°C (75°F) [RH = 63%]
Pressure (altimeter): 29.94 inches Hg (1014.0 mb)
Winds: from the NNW (340 degrees) at 6 MPH (5 knots; 2.6 m/s)
Visibility: 6 or more miles (10+ km)
Ceiling: at least 12,000 feet AGL
Clouds: few clouds at 1900 feet AGL
Weather: no significant weather observed at this time

METAR text: WAAA 190230Z 33004KT 280V040 9999 FEW019 31/24 Q1014 NOSIG
Conditions at: WAAA (HASANUDDIN/UJUNG, ID) observed 0230 UTC 19 February 2019
Temperature: 31.0°C (88°F)
Dewpoint: 24.0°C (75°F) [RH = 66%]
Pressure (altimeter): 29.94 inches Hg (1014.0 mb)
Winds: from the NNW (330 degrees) at 5 MPH (4 knots; 2.1 m/s)
Visibility: 6 or more miles (10+ km)
Ceiling: at least 12,000 feet AGL
Clouds: few clouds at 1900 feet AGL
Weather: no significant weather observed at this time

METAR text: WAAA 190200Z VRB03KT 9999 FEW019 31/25 Q1014 NOSIG
Conditions at: WAAA (HASANUDDIN/UJUNG, ID) observed 0200 UTC 19 February 2019
Temperature: 31.0°C (88°F)
Dewpoint: 25.0°C (77°F) [RH = 71%]
Pressure (altimeter): 29.94 inches Hg (1014.0 mb)
Winds: variable direction winds at 3 MPH (3 knots; 1.5 m/s)
Visibility: 6 or more miles (10+ km)
Ceiling: at least 12,000 feet AGL
Clouds: few clouds at 1900 feet AGL
Weather: no significant weather observed at this time

METAR text: WAAA 190130Z 13003KT 090V160 9999 FEW019 30/25 Q1014 NOSIG
Conditions at: WAAA (HASANUDDIN/UJUNG, ID) observed 0130 UTC 19 February 2019
Temperature: 30.0°C (86°F)
Dewpoint: 25.0°C (77°F) [RH = 75%]
Pressure (altimeter): 29.94 inches Hg (1014.0 mb)
Winds: from the SE (130 degrees) at 3 MPH (3 knots; 1.5 m/s)
Visibility: 6 or more miles (10+ km)
Ceiling: at least 12,000 feet AGL
Clouds: few clouds at 1900 feet AGL
Weather: no significant weather observed at this time

METAR text: WAAA 190100Z 07001KT 9999 FEW019 28/24 Q1014 NOSIG
Conditions at: WAAA (HASANUDDIN/UJUNG, ID) observed 0100 UTC 19 February 2019
Temperature: 28.0°C (82°F)
Dewpoint: 24.0°C (75°F) [RH = 79%]
Pressure (altimeter): 29.94 inches Hg (1014.0 mb)
Winds: from the ENE (70 degrees) at 1 MPH (1 knots; 0.5 m/s)
Visibility: 6 or more miles (10+ km)
Ceiling: at least 12,000 feet AGL
Clouds: few clouds at 1900 feet AGL
Weather: no significant weather observed at this time

METAR text: WAAA 190030Z 09003KT 060V120 9999 FEW019 27/24 Q1014 NOSIG
Conditions at: WAAA (HASANUDDIN/UJUNG, ID) observed 0030 UTC 19 February 2019
Temperature: 27.0°C (81°F)
Dewpoint: 24.0°C (75°F) [RH = 84%]
Pressure (altimeter): 29.94 inches Hg (1014.0 mb)
Winds: from the E (90 degrees) at 3 MPH (3 knots; 1.5 m/s)
Visibility: 6 or more miles (10+ km)
Ceiling: at least 12,000 feet AGL
Clouds: few clouds at 1900 feet AGL
Weather: no significant weather observed at this time

METAR text: WAAA 190000Z VRB02KT 9999 FEW019 26/24 Q1014 NOSIG
Conditions at: WAAA (HASANUDDIN/UJUNG, ID) observed 0000 UTC 19 February 2019
Temperature: 26.0°C (79°F)
Dewpoint: 24.0°C (75°F) [RH = 89%]
Pressure (altimeter): 29.94 inches Hg (1014.0 mb)
Winds: variable direction winds at 2 MPH (2 knots; 1.0 m/s)
Visibility: 6 or more miles (10+ km)
Ceiling: at least 12,000 feet AGL
Clouds: few clouds at 1900 feet AGL
Weather: no significant weather observed at this time

METAR text: WAAA 182330Z 11002KT 9999 FEW019 25/24 Q1013 NOSIG
Conditions at: WAAA (HASANUDDIN/UJUNG, ID) observed 2330 UTC 18 February 2019
Temperature: 25.0°C (77°F)
Dewpoint: 24.0°C (75°F) [RH = 94%]
Pressure (altimeter): 29.91 inches Hg (1013.0 mb)
Winds: from the ESE (110 degrees) at 2 MPH (2 knots; 1.0 m/s)
Visibility: 6 or more miles (10+ km)
Ceiling: at least 12,000 feet AGL
Clouds: few clouds at 1900 feet AGL
Weather: no significant weather observed at this time

METAR text: WAAA 182300Z 13002KT 9999 FEW019 24/24 Q1013 NOSIG
Conditions at: WAAA (HASANUDDIN/UJUNG, ID) observed 2300 UTC 18 February 2019
Temperature: 24.0°C (75°F)
Dewpoint: 24.0°C (75°F) [RH = 100%]
Pressure (altimeter): 29.91 inches Hg (1013.0 mb)
Winds: from the SE (130 degrees) at 2 MPH (2 knots; 1.0 m/s)
Visibility: 6 or more miles (10+ km)
Ceiling: at least 12,000 feet AGL
Clouds: few clouds at 1900 feet AGL
Weather: no significant weather observed at this time

METAR text: WAAA 182230Z 10001KT 9000 FEW019 24/24 Q1012 NOSIG
Conditions at: WAAA (HASANUDDIN/UJUNG, ID) observed 2230 UTC 18 February 2019
Temperature: 24.0°C (75°F)
Dewpoint: 24.0°C (75°F) [RH = 100%]
Pressure (altimeter): 29.88 inches Hg (1012.0 mb)
Winds: from the E (100 degrees) at 1 MPH (1 knots; 0.5 m/s)
Visibility: 6 miles ( 9 km)
Ceiling: at least 12,000 feet AGL
Clouds: few clouds at 1900 feet AGL
Weather: no significant weather observed at this time

METAR text: WAAA 182200Z 16001KT 9000 FEW019 24/24 Q1012 NOSIG
Conditions at: WAAA (HASANUDDIN/UJUNG, ID) observed 2200 UTC 18 February 2019
Temperature: 24.0°C (75°F)
Dewpoint: 24.0°C (75°F) [RH = 100%]
Pressure (altimeter): 29.88 inches Hg (1012.0 mb)
Winds: from the SSE (160 degrees) at 1 MPH (1 knots; 0.5 m/s)
Visibility: 6 miles ( 9 km)
Ceiling: at least 12,000 feet AGL
Clouds: few clouds at 1900 feet AGL
Weather: no significant weather observed at this time

METAR text: WAAA 182130Z 12001KT 8000 FEW019 24/24 Q1012 NOSIG
Conditions at: WAAA (HASANUDDIN/UJUNG, ID) observed 2130 UTC 18 February 2019
Temperature: 24.0°C (75°F)
Dewpoint: 24.0°C (75°F) [RH = 100%]
Pressure (altimeter): 29.88 inches Hg (1012.0 mb)
Winds: from the ESE (120 degrees) at 1 MPH (1 knots; 0.5 m/s)
Visibility: 5 miles ( 8 km)
Ceiling: at least 12,000 feet AGL
Clouds: few clouds at 1900 feet AGL
Weather: no significant weather observed at this time

METAR text: WAAA 182100Z 08001KT 8000 FEW019 24/24 Q1012 NOSIG
Conditions at: WAAA (HASANUDDIN/UJUNG, ID) observed 2100 UTC 18 February 2019
Temperature: 24.0°C (75°F)
Dewpoint: 24.0°C (75°F) [RH = 100%]
Pressure (altimeter): 29.88 inches Hg (1012.0 mb)
Winds: from the E (80 degrees) at 1 MPH (1 knots; 0.5 m/s)
Visibility: 5 miles ( 8 km)
Ceiling: at least 12,000 feet AGL
Clouds: few clouds at 1900 feet AGL
Weather: no significant weather observed at this time

METAR text: WAAA 182030Z 13001KT 8000 FEW019 24/24 Q1012 NOSIG
Conditions at: WAAA (HASANUDDIN/UJUNG, ID) observed 2030 UTC 18 February 2019
Temperature: 24.0°C (75°F)
Dewpoint: 24.0°C (75°F) [RH = 100%]
Pressure (altimeter): 29.88 inches Hg (1012.0 mb)
Winds: from the SE (130 degrees) at 1 MPH (1 knots; 0.5 m/s)
Visibility: 5 miles ( 8 km)
Ceiling: at least 12,000 feet AGL
Clouds: few clouds at 1900 feet AGL
Weather: no significant weather observed at this time

METAR text: WAAA 182000Z 10003KT 080V140 8000 FEW019 24/24 Q1012 NOSIG
Conditions at: WAAA (HASANUDDIN/UJUNG, ID) observed 2000 UTC 18 February 2019
Temperature: 24.0°C (75°F)
Dewpoint: 24.0°C (75°F) [RH = 100%]
Pressure (altimeter): 29.88 inches Hg (1012.0 mb)
Winds: from the E (100 degrees) at 3 MPH (3 knots; 1.5 m/s)
Visibility: 5 miles ( 8 km)
Ceiling: at least 12,000 feet AGL
Clouds: few clouds at 1900 feet AGL
Weather: no significant weather observed at this time

METAR text: WAAA 181930Z 12004KT 8000 FEW019 24/24 Q1011 NOSIG
Conditions at: WAAA (HASANUDDIN/UJUNG, ID) observed 1930 UTC 18 February 2019
Temperature: 24.0°C (75°F)
Dewpoint: 24.0°C (75°F) [RH = 100%]
Pressure (altimeter): 29.85 inches Hg (1011.0 mb)
Winds: from the ESE (120 degrees) at 5 MPH (4 knots; 2.1 m/s)
Visibility: 5 miles ( 8 km)
Ceiling: at least 12,000 feet AGL
Clouds: few clouds at 1900 feet AGL
Weather: no significant weather observed at this time

METAR text: WAAA 181900Z 09004KT 8000 FEW019 25/24 Q1012 NOSIG
Conditions at: WAAA (HASANUDDIN/UJUNG, ID) observed 1900 UTC 18 February 2019
Temperature: 25.0°C (77°F)
Dewpoint: 24.0°C (75°F) [RH = 94%]
Pressure (altimeter): 29.88 inches Hg (1012.0 mb)
Winds: from the E (90 degrees) at 5 MPH (4 knots; 2.1 m/s)
Visibility: 5 miles ( 8 km)
Ceiling: at least 12,000 feet AGL
Clouds: few clouds at 1900 feet AGL
Weather: no significant weather observed at this time

METAR text: WAAA 181830Z 10005KT 8000 FEW019 25/24 Q1012 NOSIG
Conditions at: WAAA (HASANUDDIN/UJUNG, ID) observed 1830 UTC 18 February 2019
Temperature: 25.0°C (77°F)
Dewpoint: 24.0°C (75°F) [RH = 94%]
Pressure (altimeter): 29.88 inches Hg (1012.0 mb)
Winds: from the E (100 degrees) at 6 MPH (5 knots; 2.6 m/s)
Visibility: 5 miles ( 8 km)
Ceiling: at least 12,000 feet AGL
Clouds: few clouds at 1900 feet AGL
Weather: no significant weather observed at this time

METAR text: WAAA 181800Z 10004KT 8000 FEW019 25/24 Q1012 NOSIG
Conditions at: WAAA (HASANUDDIN/UJUNG, ID) observed 1800 UTC 18 February 2019
Temperature: 25.0°C (77°F)
Dewpoint: 24.0°C (75°F) [RH = 94%]
Pressure (altimeter): 29.88 inches Hg (1012.0 mb)
Winds: from the E (100 degrees) at 5 MPH (4 knots; 2.1 m/s)
Visibility: 5 miles ( 8 km)
Ceiling: at least 12,000 feet AGL
Clouds: few clouds at 1900 feet AGL
Weather: no significant weather observed at this time

METAR text: WAAA 181730Z 11005KT 8000 FEW018 25/25 Q1012 NOSIG
Conditions at: WAAA (HASANUDDIN/UJUNG, ID) observed 1730 UTC 18 February 2019
Temperature: 25.0°C (77°F)
Dewpoint: 25.0°C (77°F) [RH = 100%]
Pressure (altimeter): 29.88 inches Hg (1012.0 mb)
Winds: from the ESE (110 degrees) at 6 MPH (5 knots; 2.6 m/s)
Visibility: 5 miles ( 8 km)
Ceiling: at least 12,000 feet AGL
Clouds: few clouds at 1800 feet AGL
Weather: no significant weather observed at this time

METAR text: WAAA 181700Z 09004KT 8000 FEW019 25/25 Q1013 NOSIG
Conditions at: WAAA (HASANUDDIN/UJUNG, ID) observed 1700 UTC 18 February 2019
Temperature: 25.0°C (77°F)
Dewpoint: 25.0°C (77°F) [RH = 100%]
Pressure (altimeter): 29.91 inches Hg (1013.0 mb)
Winds: from the E (90 degrees) at 5 MPH (4 knots; 2.1 m/s)
Visibility: 5 miles ( 8 km)
Ceiling: at least 12,000 feet AGL
Clouds: few clouds at 1900 feet AGL
Weather: no significant weather observed at this time

METAR text: WAAA 181630Z 10003KT 8000 FEW019 25/25 Q1013 NOSIG
Conditions at: WAAA (HASANUDDIN/UJUNG, ID) observed 1630 UTC 18 February 2019
Temperature: 25.0°C (77°F)
Dewpoint: 25.0°C (77°F) [RH = 100%]
Pressure (altimeter): 29.91 inches Hg (1013.0 mb)
Winds: from the E (100 degrees) at 3 MPH (3 knots; 1.5 m/s)
Visibility: 5 miles ( 8 km)
Ceiling: at least 12,000 feet AGL
Clouds: few clouds at 1900 feet AGL
Weather: no significant weather observed at this time

METAR text: WAAA 181600Z 07003KT 020V100 8000 FEW019 25/25 Q1013 NOSIG
Conditions at: WAAA (HASANUDDIN/UJUNG, ID) observed 1600 UTC 18 February 2019
Temperature: 25.0°C (77°F)
Dewpoint: 25.0°C (77°F) [RH = 100%]
Pressure (altimeter): 29.91 inches Hg (1013.0 mb)
Winds: from the ENE (70 degrees) at 3 MPH (3 knots; 1.5 m/s)
Visibility: 5 miles ( 8 km)
Ceiling: at least 12,000 feet AGL
Clouds: few clouds at 1900 feet AGL
Weather: no significant weather observed at this time

METAR text: WAAA 181530Z 07002KT 8000 FEW019 25/25 Q1014 NOSIG
Conditions at: WAAA (HASANUDDIN/UJUNG, ID) observed 1530 UTC 18 February 2019
Temperature: 25.0°C (77°F)
Dewpoint: 25.0°C (77°F) [RH = 100%]
Pressure (altimeter): 29.94 inches Hg (1014.0 mb)
Winds: from the ENE (70 degrees) at 2 MPH (2 knots; 1.0 m/s)
Visibility: 5 miles ( 8 km)
Ceiling: at least 12,000 feet AGL
Clouds: few clouds at 1900 feet AGL
Weather: no significant weather observed at this time

METAR text: WAAA 181500Z 08002KT 8000 FEW019 26/26 Q1014 NOSIG
Conditions at: WAAA (HASANUDDIN/UJUNG, ID) observed 1500 UTC 18 February 2019
Temperature: 26.0°C (79°F)
Dewpoint: 26.0°C (79°F) [RH = 100%]
Pressure (altimeter): 29.94 inches Hg (1014.0 mb)
Winds: from the E (80 degrees) at 2 MPH (2 knots; 1.0 m/s)
Visibility: 5 miles ( 8 km)
Ceiling: at least 12,000 feet AGL
Clouds: few clouds at 1900 feet AGL
Weather: no significant weather observed at this time

METAR text: WAAA 181430Z VRB02KT 8000 FEW019 26/26 Q1014 NOSIG
Conditions at: WAAA (HASANUDDIN/UJUNG, ID) observed 1430 UTC 18 February 2019
Temperature: 26.0°C (79°F)
Dewpoint: 26.0°C (79°F) [RH = 100%]
Pressure (altimeter): 29.94 inches Hg (1014.0 mb)
Winds: variable direction winds at 2 MPH (2 knots; 1.0 m/s)
Visibility: 5 miles ( 8 km)
Ceiling: at least 12,000 feet AGL
Clouds: few clouds at 1900 feet AGL
Weather: no significant weather observed at this time

METAR text: WAAA 181400Z VRB02KT 8000 SCT018 26/26 Q1014 NOSIG
Conditions at: WAAA (HASANUDDIN/UJUNG, ID) observed 1400 UTC 18 February 2019
Temperature: 26.0°C (79°F)
Dewpoint: 26.0°C (79°F) [RH = 100%]
Pressure (altimeter): 29.94 inches Hg (1014.0 mb)
Winds: variable direction winds at 2 MPH (2 knots; 1.0 m/s)
Visibility: 5 miles ( 8 km)
Ceiling: at least 12,000 feet AGL
Clouds: scattered clouds at 1800 feet AGL
Weather: no significant weather observed at this time

METAR text: WAAA 181330Z 13004KT 8000 FEW018CB FEW019 26/26 Q1014 NOSIG
Conditions at: WAAA (HASANUDDIN/UJUNG, ID) observed 1330 UTC 18 February 2019
Temperature: 26.0°C (79°F)
Dewpoint: 26.0°C (79°F) [RH = 100%]
Pressure (altimeter): 29.94 inches Hg (1014.0 mb)
Winds: from the SE (130 degrees) at 5 MPH (4 knots; 2.1 m/s)
Visibility: 5 miles ( 8 km)
Ceiling: at least 12,000 feet AGL
Clouds: few clouds at 1800 feet AGL
few clouds at 1900 feet AGL
Weather: no significant weather observed at this time

METAR text: WAAA 181300Z 12002KT 8000 FEW019 26/26 Q1013 NOSIG
Conditions at: WAAA (HASANUDDIN/UJUNG, ID) observed 1300 UTC 18 February 2019
Temperature: 26.0°C (79°F)
Dewpoint: 26.0°C (79°F) [RH = 100%]
Pressure (altimeter): 29.91 inches Hg (1013.0 mb)
Winds: from the ESE (120 degrees) at 2 MPH (2 knots; 1.0 m/s)
Visibility: 5 miles ( 8 km)
Ceiling: at least 12,000 feet AGL
Clouds: few clouds at 1900 feet AGL
Weather: no significant weather observed at this time

METAR text: WAAA 181230Z 06003KT 330V130 8000 FEW019 27/25 Q1013 NOSIG
Conditions at: WAAA (HASANUDDIN/UJUNG, ID) observed 1230 UTC 18 February 2019
Temperature: 27.0°C (81°F)
Dewpoint: 25.0°C (77°F) [RH = 89%]
Pressure (altimeter): 29.91 inches Hg (1013.0 mb)
Winds: from the ENE (60 degrees) at 3 MPH (3 knots; 1.5 m/s)
Visibility: 5 miles ( 8 km)
Ceiling: at least 12,000 feet AGL
Clouds: few clouds at 1900 feet AGL
Weather: no significant weather observed at this time

METAR text: WAAA 181200Z 30003KT 8000 FEW019 28/24 Q1013 NOSIG
Conditions at: WAAA (HASANUDDIN/UJUNG, ID) observed 1200 UTC 18 February 2019
Temperature: 28.0°C (82°F)
Dewpoint: 24.0°C (75°F) [RH = 79%]
Pressure (altimeter): 29.91 inches Hg (1013.0 mb)
Winds: from the WNW (300 degrees) at 3 MPH (3 knots; 1.5 m/s)
Visibility: 5 miles ( 8 km)
Ceiling: at least 12,000 feet AGL
Clouds: few clouds at 1900 feet AGL
Weather: no significant weather observed at this time

METAR text: WAAA 181130Z 34004KT 8000 FEW018CB FEW019 29/25 Q1013 NOSIG
Conditions at: WAAA (HASANUDDIN/UJUNG, ID) observed 1130 UTC 18 February 2019
Temperature: 29.0°C (84°F)
Dewpoint: 25.0°C (77°F) [RH = 79%]
Pressure (altimeter): 29.91 inches Hg (1013.0 mb)
Winds: from the NNW (340 degrees) at 5 MPH (4 knots; 2.1 m/s)
Visibility: 5 miles ( 8 km)
Ceiling: at least 12,000 feet AGL
Clouds: few clouds at 1800 feet AGL
few clouds at 1900 feet AGL
Weather: no significant weather observed at this time

METAR text: WAAA 181100Z 34004KT 320V020 8000 FEW019 29/25 Q1012 NOSIG
Conditions at: WAAA (HASANUDDIN/UJUNG, ID) observed 1100 UTC 18 February 2019
Temperature: 29.0°C (84°F)
Dewpoint: 25.0°C (77°F) [RH = 79%]
Pressure (altimeter): 29.88 inches Hg (1012.0 mb)
Winds: from the NNW (340 degrees) at 5 MPH (4 knots; 2.1 m/s)
Visibility: 5 miles ( 8 km)
Ceiling: at least 12,000 feet AGL
Clouds: few clouds at 1900 feet AGL
Weather: no significant weather observed at this time

METAR text: WAAA 181030Z 34005KT 8000 FEW019 29/24 Q1012 NOSIG
Conditions at: WAAA (HASANUDDIN/UJUNG, ID) observed 1030 UTC 18 February 2019
Temperature: 29.0°C (84°F)
Dewpoint: 24.0°C (75°F) [RH = 74%]
Pressure (altimeter): 29.88 inches Hg (1012.0 mb)
Winds: from the NNW (340 degrees) at 6 MPH (5 knots; 2.6 m/s)
Visibility: 5 miles ( 8 km)
Ceiling: at least 12,000 feet AGL
Clouds: few clouds at 1900 feet AGL
Weather: no significant weather observed at this time

METAR text: WAAA 181000Z 33006KT 290V010 9999 FEW019 30/24 Q1012 NOSIG
Conditions at: WAAA (HASANUDDIN/UJUNG, ID) observed 1000 UTC 18 February 2019
Temperature: 30.0°C (86°F)
Dewpoint: 24.0°C (75°F) [RH = 70%]
Pressure (altimeter): 29.88 inches Hg (1012.0 mb)
Winds: from the NNW (330 degrees) at 7 MPH (6 knots; 3.1 m/s)
Visibility: 6 or more miles (10+ km)
Ceiling: at least 12,000 feet AGL
Clouds: few clouds at 1900 feet AGL
Weather: no significant weather observed at this time

METAR text: WAAA 180930Z 31008KT 280V350 9999 SCT019 30/25 Q1011 NOSIG
Conditions at: WAAA (HASANUDDIN/UJUNG, ID) observed 0930 UTC 18 February 2019
Temperature: 30.0°C (86°F)
Dewpoint: 25.0°C (77°F) [RH = 75%]
Pressure (altimeter): 29.85 inches Hg (1011.0 mb)
Winds: from the NW (310 degrees) at 9 MPH (8 knots; 4.1 m/s)
Visibility: 6 or more miles (10+ km)
Ceiling: at least 12,000 feet AGL
Clouds: scattered clouds at 1900 feet AGL
Weather: no significant weather observed at this time

METAR text: WAAA 180900Z 33007KT 9999 SCT019 30/25 Q1011 NOSIG
Conditions at: WAAA (HASANUDDIN/UJUNG, ID) observed 0900 UTC 18 February 2019
Temperature: 30.0°C (86°F)
Dewpoint: 25.0°C (77°F) [RH = 75%]
Pressure (altimeter): 29.85 inches Hg (1011.0 mb)
Winds: from the NNW (330 degrees) at 8 MPH (7 knots; 3.6 m/s)
Visibility: 6 or more miles (10+ km)
Ceiling: at least 12,000 feet AGL
Clouds: scattered clouds at 1900 feet AGL
Weather: no significant weather observed at this time

METAR text: WAAA 180830Z 33009KT 300V010 9999 FEW019 30/25 Q1011 NOSIG
Conditions at: WAAA (HASANUDDIN/UJUNG, ID) observed 0830 UTC 18 February 2019
Temperature: 30.0°C (86°F)
Dewpoint: 25.0°C (77°F) [RH = 75%]
Pressure (altimeter): 29.85 inches Hg (1011.0 mb)
Winds: from the NNW (330 degrees) at 10 MPH (9 knots; 4.6 m/s)
Visibility: 6 or more miles (10+ km)
Ceiling: at least 12,000 feet AGL
Clouds: few clouds at 1900 feet AGL
Weather: no significant weather observed at this time

METAR text: WAAA 180800Z 33007KT 300V010 9999 FEW019 31/25 Q1011 NOSIG
Conditions at: WAAA (HASANUDDIN/UJUNG, ID) observed 0800 UTC 18 February 2019
Temperature: 31.0°C (88°F)
Dewpoint: 25.0°C (77°F) [RH = 71%]
Pressure (altimeter): 29.85 inches Hg (1011.0 mb)
Winds: from the NNW (330 degrees) at 8 MPH (7 knots; 3.6 m/s)
Visibility: 6 or more miles (10+ km)
Ceiling: at least 12,000 feet AGL
Clouds: few clouds at 1900 feet AGL
Weather: no significant weather observed at this time

METAR text: WAAA 180730Z 35005KT 280V040 9999 SCT019 30/25 Q1011 NOSIG
Conditions at: WAAA (HASANUDDIN/UJUNG, ID) observed 0730 UTC 18 February 2019
Temperature: 30.0°C (86°F)
Dewpoint: 25.0°C (77°F) [RH = 75%]
Pressure (altimeter): 29.85 inches Hg (1011.0 mb)
Winds: from the N (350 degrees) at 6 MPH (5 knots; 2.6 m/s)
Visibility: 6 or more miles (10+ km)
Ceiling: at least 12,000 feet AGL
Clouds: scattered clouds at 1900 feet AGL
Weather: no significant weather observed at this time

METAR text: WAAA 180700Z 34008KT 290V010 9999 SCT019 30/25 Q1011 NOSIG
Conditions at: WAAA (HASANUDDIN/UJUNG, ID) observed 0700 UTC 18 February 2019
Temperature: 30.0°C (86°F)
Dewpoint: 25.0°C (77°F) [RH = 75%]
Pressure (altimeter): 29.85 inches Hg (1011.0 mb)
Winds: from the NNW (340 degrees) at 9 MPH (8 knots; 4.1 m/s)
Visibility: 6 or more miles (10+ km)
Ceiling: at least 12,000 feet AGL
Clouds: scattered clouds at 1900 feet AGL
Weather: no significant weather observed at this time

METAR text: WAAA 180630Z 35008KT 320V020 9999 FEW018CB FEW019 30/25 Q1011 NOSIG
Conditions at: WAAA (HASANUDDIN/UJUNG, ID) observed 0630 UTC 18 February 2019
Temperature: 30.0°C (86°F)
Dewpoint: 25.0°C (77°F) [RH = 75%]
Pressure (altimeter): 29.85 inches Hg (1011.0 mb)
Winds: from the N (350 degrees) at 9 MPH (8 knots; 4.1 m/s)
Visibility: 6 or more miles (10+ km)
Ceiling: at least 12,000 feet AGL
Clouds: few clouds at 1800 feet AGL
few clouds at 1900 feet AGL
Weather: no significant weather observed at this time

METAR text: WAAA 180600Z 34008KT 310V010 9999 FEW018CB SCT019 31/24 Q1012 NOSIG
Conditions at: WAAA (HASANUDDIN/UJUNG, ID) observed 0600 UTC 18 February 2019
Temperature: 31.0°C (88°F)
Dewpoint: 24.0°C (75°F) [RH = 66%]
Pressure (altimeter): 29.88 inches Hg (1012.0 mb)
Winds: from the NNW (340 degrees) at 9 MPH (8 knots; 4.1 m/s)
Visibility: 6 or more miles (10+ km)
Ceiling: at least 12,000 feet AGL
Clouds: few clouds at 1800 feet AGL
scattered clouds at 1900 feet AGL
Weather: no significant weather observed at this time

METAR text: WAAA 180530Z 34007KT 310V010 9999 FEW018CB FEW019 31/25 Q1012 NOSIG
Conditions at: WAAA (HASANUDDIN/UJUNG, ID) observed 0530 UTC 18 February 2019
Temperature: 31.0°C (88°F)
Dewpoint: 25.0°C (77°F) [RH = 71%]
Pressure (altimeter): 29.88 inches Hg (1012.0 mb)
Winds: from the NNW (340 degrees) at 8 MPH (7 knots; 3.6 m/s)
Visibility: 6 or more miles (10+ km)
Ceiling: at least 12,000 feet AGL
Clouds: few clouds at 1800 feet AGL
few clouds at 1900 feet AGL
Weather: no significant weather observed at this time

METAR text: WAAA 180500Z 35008KT 310V020 9999 SCT019 31/24 Q1012 NOSIG
Conditions at: WAAA (HASANUDDIN/UJUNG, ID) observed 0500 UTC 18 February 2019
Temperature: 31.0°C (88°F)
Dewpoint: 24.0°C (75°F) [RH = 66%]
Pressure (altimeter): 29.88 inches Hg (1012.0 mb)
Winds: from the N (350 degrees) at 9 MPH (8 knots; 4.1 m/s)
Visibility: 6 or more miles (10+ km)
Ceiling: at least 12,000 feet AGL
Clouds: scattered clouds at 1900 feet AGL
Weather: no significant weather observed at this time

METAR text: WAAA 180430Z 35008KT 310V020 9999 SCT019 31/24 Q1013 NOSIG
Conditions at: WAAA (HASANUDDIN/UJUNG, ID) observed 0430 UTC 18 February 2019
Temperature: 31.0°C (88°F)
Dewpoint: 24.0°C (75°F) [RH = 66%]
Pressure (altimeter): 29.91 inches Hg (1013.0 mb)
Winds: from the N (350 degrees) at 9 MPH (8 knots; 4.1 m/s)
Visibility: 6 or more miles (10+ km)
Ceiling: at least 12,000 feet AGL
Clouds: scattered clouds at 1900 feet AGL
Weather: no significant weather observed at this time

METAR text: WAAA 180400Z 35004KT 250V040 9999 SCT019 30/25 Q1013 NOSIG
Conditions at: WAAA (HASANUDDIN/UJUNG, ID) observed 0400 UTC 18 February 2019
Temperature: 30.0°C (86°F)
Dewpoint: 25.0°C (77°F) [RH = 75%]
Pressure (altimeter): 29.91 inches Hg (1013.0 mb)
Winds: from the N (350 degrees) at 5 MPH (4 knots; 2.1 m/s)
Visibility: 6 or more miles (10+ km)
Ceiling: at least 12,000 feet AGL
Clouds: scattered clouds at 1900 feet AGL
Weather: no significant weather observed at this time

METAR text: WAAA 180330Z 09004KT 030V200 9999 SCT019 30/25 Q1014 NOSIG
Conditions at: WAAA (HASANUDDIN/UJUNG, ID) observed 0330 UTC 18 February 2019
Temperature: 30.0°C (86°F)
Dewpoint: 25.0°C (77°F) [RH = 75%]
Pressure (altimeter): 29.94 inches Hg (1014.0 mb)
Winds: from the E (90 degrees) at 5 MPH (4 knots; 2.1 m/s)
Visibility: 6 or more miles (10+ km)
Ceiling: at least 12,000 feet AGL
Clouds: scattered clouds at 1900 feet AGL
Weather: no significant weather observed at this time

METAR text: WAAA 180300Z 07006KT 040V100 9999 FEW019 29/25 Q1014 NOSIG
Conditions at: WAAA (HASANUDDIN/UJUNG, ID) observed 0300 UTC 18 February 2019
Temperature: 29.0°C (84°F)
Dewpoint: 25.0°C (77°F) [RH = 79%]
Pressure (altimeter): 29.94 inches Hg (1014.0 mb)
Winds: from the ENE (70 degrees) at 7 MPH (6 knots; 3.1 m/s)
Visibility: 6 or more miles (10+ km)
Ceiling: at least 12,000 feet AGL
Clouds: few clouds at 1900 feet AGL
Weather: no significant weather observed at this time

METAR text: WAAA 180230Z VRB04KT 9999 FEW019 29/25 Q1014 NOSIG
Conditions at: WAAA (HASANUDDIN/UJUNG, ID) observed 0230 UTC 18 February 2019
Temperature: 29.0°C (84°F)
Dewpoint: 25.0°C (77°F) [RH = 79%]
Pressure (altimeter): 29.94 inches Hg (1014.0 mb)
Winds: variable direction winds at 5 MPH (4 knots; 2.1 m/s)
Visibility: 6 or more miles (10+ km)
Ceiling: at least 12,000 feet AGL
Clouds: few clouds at 1900 feet AGL
Weather: no significant weather observed at this time

METAR text: WAAA 180200Z 06005KT 030V100 9999 SCT019 29/25 Q1014 NOSIG
Conditions at: WAAA (HASANUDDIN/UJUNG, ID) observed 0200 UTC 18 February 2019
Temperature: 29.0°C (84°F)
Dewpoint: 25.0°C (77°F) [RH = 79%]
Pressure (altimeter): 29.94 inches Hg (1014.0 mb)
Winds: from the ENE (60 degrees) at 6 MPH (5 knots; 2.6 m/s)
Visibility: 6 or more miles (10+ km)
Ceiling: at least 12,000 feet AGL
Clouds: scattered clouds at 1900 feet AGL
Weather: no significant weather observed at this time

METAR text: WAAA 180130Z VRB02KT 9999 SCT019 28/25 Q1014 NOSIG
Conditions at: WAAA (HASANUDDIN/UJUNG, ID) observed 0130 UTC 18 February 2019
Temperature: 28.0°C (82°F)
Dewpoint: 25.0°C (77°F) [RH = 84%]
Pressure (altimeter): 29.94 inches Hg (1014.0 mb)
Winds: variable direction winds at 2 MPH (2 knots; 1.0 m/s)
Visibility: 6 or more miles (10+ km)
Ceiling: at least 12,000 feet AGL
Clouds: scattered clouds at 1900 feet AGL
Weather: no significant weather observed at this time

METAR text: WAAA 180100Z VRB02KT 9999 SCT019 28/25 Q1014 NOSIG
Conditions at: WAAA (HASANUDDIN/UJUNG, ID) observed 0100 UTC 18 February 2019
Temperature: 28.0°C (82°F)
Dewpoint: 25.0°C (77°F) [RH = 84%]
Pressure (altimeter): 29.94 inches Hg (1014.0 mb)
Winds: variable direction winds at 2 MPH (2 knots; 1.0 m/s)
Visibility: 6 or more miles (10+ km)
Ceiling: at least 12,000 feet AGL
Clouds: scattered clouds at 1900 feet AGL
Weather: no significant weather observed at this time

METAR text: WAAA 180030Z VRB02KT 9999 SCT019 27/24 Q1014 NOSIG
Conditions at: WAAA (HASANUDDIN/UJUNG, ID) observed 0030 UTC 18 February 2019
Temperature: 27.0°C (81°F)
Dewpoint: 24.0°C (75°F) [RH = 84%]
Pressure (altimeter): 29.94 inches Hg (1014.0 mb)
Winds: variable direction winds at 2 MPH (2 knots; 1.0 m/s)
Visibility: 6 or more miles (10+ km)
Ceiling: at least 12,000 feet AGL
Clouds: scattered clouds at 1900 feet AGL
Weather: no significant weather observed at this time

METAR text: WAAA 180000Z 07002KT 9999 BKN019 26/23 Q1014 NOSIG
Conditions at: WAAA (HASANUDDIN/UJUNG, ID) observed 0000 UTC 18 February 2019
Temperature: 26.0°C (79°F)
Dewpoint: 23.0°C (73°F) [RH = 84%]
Pressure (altimeter): 29.94 inches Hg (1014.0 mb)
Winds: from the ENE (70 degrees) at 2 MPH (2 knots; 1.0 m/s)
Visibility: 6 or more miles (10+ km)
Ceiling: 1900 feet AGL
Clouds: broken clouds at 1900 feet AGL
Weather: no significant weather observed at this time

METAR text: WAAA 172330Z VRB03KT 9999 BKN019 25/24 Q1013 NOSIG
Conditions at: WAAA (HASANUDDIN/UJUNG, ID) observed 2330 UTC 17 February 2019
Temperature: 25.0°C (77°F)
Dewpoint: 24.0°C (75°F) [RH = 94%]
Pressure (altimeter): 29.91 inches Hg (1013.0 mb)
Winds: variable direction winds at 3 MPH (3 knots; 1.5 m/s)
Visibility: 6 or more miles (10+ km)
Ceiling: 1900 feet AGL
Clouds: broken clouds at 1900 feet AGL
Weather: no significant weather observed at this time

METAR text: WAAA 172300Z 08001KT 9999 FEW019 24/24 Q1012 NOSIG
Conditions at: WAAA (HASANUDDIN/UJUNG, ID) observed 2300 UTC 17 February 2019
Temperature: 24.0°C (75°F)
Dewpoint: 24.0°C (75°F) [RH = 100%]
Pressure (altimeter): 29.88 inches Hg (1012.0 mb)
Winds: from the E (80 degrees) at 1 MPH (1 knots; 0.5 m/s)
Visibility: 6 or more miles (10+ km)
Ceiling: at least 12,000 feet AGL
Clouds: few clouds at 1900 feet AGL
Weather: no significant weather observed at this time

Forecast for: WAAA (HASANUDDIN/UJUNG, ID)
Text: TAF WAAA 190500Z 1906/2012 28010KT 9000 SCT019
Forecast period: 0600 to 1200 UTC 19 February 2019
Forecast type: FROM: standard forecast or significant change
Winds: from the W (280 degrees) at 12 MPH (10 knots; 5.1 m/s)
Visibility: 6 miles (9 km)
Ceiling: at least 12,000 feet AGL
Clouds: scattered clouds at 1900 feet AGL
Weather: no significant weather forecast for this period
Text: BECMG 1912/1914 12005KT 8000 FEW020
Forecast period: 1200 UTC 19 February 2019 to 1200 UTC 20 February 2019
Forecast type: BECOMING: Conditions expected to become as follows by 1400 UTC 19 February 2019
Winds: from the ESE (120 degrees) at 6 MPH (5 knots; 2.6 m/s)
Visibility: 5 miles (8 km)
Ceiling: at least 12,000 feet AGL
Clouds: few clouds at 2000 feet AGL
Weather: no significant weather forecast for this period